createdAt,value
2017-08-28T00:00:10.665Z,0
2017-08-28T00:01:11.266Z,0
2017-08-28T00:02:10.957Z,0
2017-08-28T00:03:11.453Z,0
2017-08-28T00:04:11.256Z,0
2017-08-28T00:05:11.262Z,0
2017-08-28T00:06:11.211Z,0
2017-08-28T00:07:11.221Z,0
2017-08-28T00:08:11.102Z,0
2017-08-28T00:09:11.186Z,0
2017-08-28T00:10:10.874Z,0
2017-08-28T00:11:11.191Z,0
2017-08-28T00:12:10.544Z,0
2017-08-28T00:13:10.533Z,0
2017-08-28T00:14:10.829Z,0
2017-08-28T00:15:10.205Z,0
2017-08-28T00:16:10.815Z,0
2017-08-28T00:17:11.117Z,0
2017-08-28T00:18:10.806Z,0
2017-08-28T00:19:10.505Z,0
2017-08-28T00:20:10.778Z,0
2017-08-28T00:21:11.074Z,0
2017-08-28T00:22:10.757Z,0
2017-08-28T00:23:10.739Z,0
2017-08-28T00:24:11.046Z,0
2017-08-28T00:25:10.429Z,0
2017-08-28T00:26:11.035Z,0
2017-08-28T00:27:11.013Z,0
2017-08-28T00:28:10.696Z,0
2017-08-28T00:29:10.883Z,0
2017-08-28T00:30:10.988Z,0
2017-08-28T00:31:10.982Z,0
2017-08-28T00:32:10.638Z,0
2017-08-28T00:33:10.634Z,0
2017-08-28T00:34:10.362Z,0
2017-08-28T00:35:10.832Z,0
2017-08-28T00:36:10.936Z,0
2017-08-28T00:37:10.914Z,0
2017-08-28T00:38:10.896Z,0
2017-08-28T00:39:10.572Z,0
2017-08-28T00:40:11.093Z,0
2017-08-28T00:41:10.866Z,0
2017-08-28T00:42:10.238Z,0
2017-08-28T00:43:10.838Z,0
2017-08-28T00:44:10.554Z,0
2017-08-28T00:45:10.841Z,0
2017-08-28T00:46:10.516Z,0
2017-08-28T00:47:10.805Z,0
2017-08-28T00:48:10.488Z,0
2017-08-28T00:49:10.483Z,0
2017-08-28T00:50:10.476Z,0
2017-08-28T00:51:10.447Z,0
2017-08-28T00:52:10.459Z,0
2017-08-28T00:53:10.762Z,0
2017-08-28T00:54:10.429Z,0
2017-08-28T00:55:10.421Z,0
2017-08-28T00:56:10.735Z,0
2017-08-28T00:57:10.072Z,0
2017-08-28T00:58:10.089Z,0
2017-08-28T00:59:10.376Z,0
2017-08-28T01:00:10.672Z,0
2017-08-28T01:01:10.682Z,0
2017-08-28T01:02:10.654Z,0
2017-08-28T01:03:10.654Z,0
2017-08-28T01:04:10.647Z,0
2017-08-28T01:05:10.622Z,0
2017-08-28T01:06:10.616Z,0
2017-08-28T01:07:10.632Z,0
2017-08-28T01:08:10.277Z,0
2017-08-28T01:09:10.264Z,0
2017-08-28T01:10:10.587Z,0
2017-08-28T01:11:10.796Z,0
2017-08-28T01:12:10.483Z,0
2017-08-28T01:13:10.558Z,0
2017-08-28T01:14:10.224Z,0
2017-08-28T01:15:10.215Z,0
2017-08-28T01:16:10.711Z,0
2017-08-28T01:17:10.506Z,0
2017-08-28T01:18:10.184Z,0
2017-08-28T01:19:10.168Z,0
2017-08-28T01:20:10.482Z,0
2017-08-28T01:21:10.462Z,0
2017-08-28T01:22:10.469Z,0
2017-08-28T01:23:10.450Z,0
2017-08-28T01:24:10.456Z,0
2017-08-28T01:25:10.118Z,0
2017-08-28T01:26:10.431Z,0
2017-08-28T01:27:10.091Z,0
2017-08-28T01:28:10.392Z,0
2017-08-28T01:29:10.386Z,0
2017-08-28T01:30:10.370Z,0
2017-08-28T01:31:10.368Z,0
2017-08-28T01:32:10.043Z,0
2017-08-28T01:33:10.339Z,0
2017-08-28T01:34:10.327Z,0
2017-08-28T01:35:10.028Z,0
2017-08-28T01:36:10.325Z,0
2017-08-28T01:37:09.980Z,0
2017-08-28T01:38:09.988Z,0
2017-08-28T01:39:10.274Z,0
2017-08-28T01:40:10.261Z,0
2017-08-28T01:41:10.274Z,0
2017-08-28T01:42:09.937Z,0
2017-08-28T01:43:10.241Z,0
2017-08-28T01:44:10.238Z,0
2017-08-28T01:45:09.919Z,0
2017-08-28T01:46:10.212Z,0
2017-08-28T01:47:10.404Z,0
2017-08-28T01:48:09.880Z,0
2017-08-28T01:49:10.190Z,0
2017-08-28T01:50:10.171Z,0
2017-08-28T01:51:10.146Z,0
2017-08-28T01:52:10.356Z,0
2017-08-28T01:53:09.817Z,0
2017-08-28T01:54:09.823Z,0
2017-08-28T01:55:09.822Z,0
2017-08-28T01:56:09.787Z,0
2017-08-28T01:57:10.088Z,0
2017-08-28T01:58:10.093Z,0
2017-08-28T01:59:10.076Z,0
2017-08-28T02:00:10.061Z,0
2017-08-28T02:01:09.742Z,0
2017-08-28T02:02:10.040Z,0
2017-08-28T02:03:10.020Z,0
2017-08-28T02:04:09.716Z,0
2017-08-28T02:05:09.697Z,0
2017-08-28T02:06:10.009Z,0
2017-08-28T02:07:09.679Z,0
2017-08-28T02:08:09.347Z,0
2017-08-28T02:09:09.988Z,0
2017-08-28T02:10:09.950Z,0
2017-08-28T02:11:09.994Z,0
2017-08-28T02:12:09.935Z,0
2017-08-28T02:13:09.609Z,0
2017-08-28T02:14:09.502Z,0
2017-08-28T02:15:09.605Z,0
2017-08-28T02:16:09.582Z,0
2017-08-28T02:17:09.581Z,0
2017-08-28T02:18:09.581Z,0
2017-08-28T02:19:09.881Z,0
2017-08-28T02:20:09.247Z,0
2017-08-28T02:21:09.842Z,0
2017-08-28T02:22:08.895Z,0
2017-08-28T02:23:09.830Z,0
2017-08-28T02:24:09.191Z,0
2017-08-28T02:25:09.480Z,0
2017-08-28T02:26:09.186Z,0
2017-08-28T02:27:09.165Z,0
2017-08-28T02:28:09.451Z,0
2017-08-28T02:29:09.770Z,0
2017-08-28T02:30:09.741Z,0
2017-08-28T02:31:09.435Z,0
2017-08-28T02:32:09.740Z,0
2017-08-28T02:33:09.732Z,0
2017-08-28T02:34:09.400Z,0
2017-08-28T02:35:09.392Z,0
2017-08-28T02:36:09.060Z,0
2017-08-28T02:37:09.676Z,0
2017-08-28T02:38:09.375Z,0
2017-08-28T02:39:09.364Z,0
2017-08-28T02:40:09.652Z,0
2017-08-28T02:41:09.629Z,0
2017-08-28T02:42:09.312Z,0
2017-08-28T02:43:09.617Z,0
2017-08-28T02:44:09.612Z,0
2017-08-28T02:45:09.293Z,0
2017-08-28T02:46:09.590Z,0
2017-08-28T02:47:09.579Z,0
2017-08-28T02:48:09.239Z,0
2017-08-28T02:49:09.565Z,0
2017-08-28T02:50:08.910Z,0
2017-08-28T02:51:09.227Z,0
2017-08-28T02:52:09.200Z,0
2017-08-28T02:53:09.507Z,0
2017-08-28T02:54:09.506Z,0
2017-08-28T02:55:09.489Z,0
2017-08-28T02:56:08.845Z,0
2017-08-28T02:57:09.172Z,0
2017-08-28T02:58:09.140Z,0
2017-08-28T02:59:09.140Z,0
2017-08-28T03:00:09.127Z,0
2017-08-28T03:01:09.112Z,0
2017-08-28T03:02:08.491Z,0
2017-08-28T03:03:09.394Z,0
2017-08-28T03:04:09.391Z,0
2017-08-28T03:05:09.403Z,0
2017-08-28T03:06:08.741Z,0
2017-08-28T03:07:09.054Z,0
2017-08-28T03:08:09.044Z,0
2017-08-28T03:09:09.338Z,0
2017-08-28T03:10:09.340Z,0
2017-08-28T03:11:09.322Z,0
2017-08-28T03:12:08.709Z,0
2017-08-28T03:13:09.285Z,0
2017-08-28T03:14:09.293Z,0
2017-08-28T03:15:09.288Z,0
2017-08-28T03:16:08.948Z,0
2017-08-28T03:17:08.945Z,0
2017-08-28T03:18:09.260Z,0
2017-08-28T03:19:09.236Z,0
2017-08-28T03:20:08.928Z,0
2017-08-28T03:21:09.244Z,0
2017-08-28T03:22:09.251Z,0
2017-08-28T03:23:09.209Z,0
2017-08-28T03:24:09.185Z,0
2017-08-28T03:25:08.860Z,0
2017-08-28T03:26:08.853Z,0
2017-08-28T03:27:08.229Z,0
2017-08-28T03:28:08.851Z,0
2017-08-28T03:29:09.143Z,0
2017-08-28T03:30:08.817Z,0
2017-08-28T03:31:09.140Z,0
2017-08-28T03:32:08.798Z,0
2017-08-28T03:33:08.779Z,0
2017-08-28T03:34:09.086Z,0
2017-08-28T03:35:09.097Z,0
2017-08-28T03:36:08.752Z,0
2017-08-28T03:37:09.055Z,0
2017-08-28T03:38:09.041Z,0
2017-08-28T03:39:09.032Z,0
2017-08-28T03:40:08.401Z,0
2017-08-28T03:41:09.031Z,0
2017-08-28T03:42:08.699Z,0
2017-08-28T03:43:08.984Z,0
2017-08-28T03:44:08.349Z,0
2017-08-28T03:45:08.968Z,0
2017-08-28T03:46:08.335Z,0
2017-08-28T03:47:08.326Z,0
2017-08-28T03:48:08.321Z,0
2017-08-28T03:49:08.614Z,0
2017-08-28T03:50:08.606Z,0
2017-08-28T03:51:08.595Z,0
2017-08-28T03:52:08.594Z,0
2017-08-28T03:53:08.601Z,0
2017-08-28T03:54:08.550Z,0
2017-08-28T03:55:08.558Z,0
2017-08-28T03:56:08.229Z,0
2017-08-28T03:57:08.218Z,0
2017-08-28T03:58:08.828Z,0
2017-08-28T03:59:08.858Z,0
2017-08-28T04:00:08.826Z,0
2017-08-28T04:01:08.801Z,0
2017-08-28T04:02:08.792Z,0
2017-08-28T04:03:08.473Z,0
2017-08-28T04:04:08.787Z,0
2017-08-28T04:05:08.173Z,0
2017-08-28T04:06:08.454Z,0
2017-08-28T04:07:08.756Z,0
2017-08-28T04:08:08.420Z,0
2017-08-28T04:09:08.418Z,0
2017-08-28T04:10:08.421Z,0
2017-08-28T04:11:08.394Z,0
2017-08-28T04:12:08.379Z,0
2017-08-28T04:13:08.376Z,0
2017-08-28T04:14:08.670Z,5
2017-08-28T04:15:08.647Z,5
2017-08-28T04:16:08.347Z,5
2017-08-28T04:17:08.653Z,5
2017-08-28T04:18:08.630Z,5
2017-08-28T04:19:08.294Z,10
2017-08-28T04:20:08.604Z,10
2017-08-28T04:21:08.588Z,10
2017-08-28T04:22:08.576Z,10
2017-08-28T04:23:08.587Z,10
2017-08-28T04:24:08.584Z,10
2017-08-28T04:25:08.572Z,10
2017-08-28T04:26:08.541Z,10
2017-08-28T04:27:08.534Z,10
2017-08-28T04:28:08.221Z,10
2017-08-28T04:29:08.521Z,15
2017-08-28T04:30:08.517Z,15
2017-08-28T04:31:08.194Z,15
2017-08-28T04:32:08.185Z,15
2017-08-28T04:33:08.476Z,20
2017-08-28T04:34:08.174Z,20
2017-08-28T04:35:08.458Z,25
2017-08-28T04:36:08.463Z,25
2017-08-28T04:37:08.436Z,30
2017-08-28T04:38:08.116Z,35
2017-08-28T04:39:08.423Z,35
2017-08-28T04:40:08.100Z,40
2017-08-28T04:41:08.395Z,45
2017-08-28T04:42:08.074Z,45
2017-08-28T04:43:08.375Z,45
2017-08-28T04:44:08.048Z,50
2017-08-28T04:45:08.344Z,50
2017-08-28T04:46:08.352Z,55
2017-08-28T04:47:08.337Z,60
2017-08-28T04:48:07.996Z,65
2017-08-28T04:49:07.692Z,65
2017-08-28T04:50:07.676Z,70
2017-08-28T04:51:07.361Z,75
2017-08-28T04:52:08.278Z,75
2017-08-28T04:53:08.268Z,80
2017-08-28T04:54:08.265Z,80
2017-08-28T04:55:08.253Z,85
2017-08-28T04:56:08.255Z,85
2017-08-28T04:57:08.235Z,90
2017-08-28T04:58:08.219Z,95
2017-08-28T04:59:08.208Z,95
2017-08-28T05:00:07.893Z,100
2017-08-28T05:01:07.884Z,105
2017-08-28T05:02:08.185Z,105
2017-08-28T05:03:08.166Z,110
2017-08-28T05:04:08.142Z,110
2017-08-28T05:05:08.141Z,115
2017-08-28T05:06:07.508Z,115
2017-08-28T05:07:07.814Z,120
2017-08-28T05:08:07.494Z,120
2017-08-28T05:09:07.799Z,125
2017-08-28T05:10:08.098Z,125
2017-08-28T05:11:07.467Z,130
2017-08-28T05:12:07.764Z,130
2017-08-28T05:13:07.444Z,135
2017-08-28T05:14:07.747Z,135
2017-08-28T05:15:08.073Z,135
2017-08-28T05:16:08.031Z,140
2017-08-28T05:17:07.396Z,145
2017-08-28T05:18:07.694Z,150
2017-08-28T05:19:07.678Z,155
2017-08-28T05:20:07.986Z,160
2017-08-28T05:21:07.367Z,165
2017-08-28T05:22:07.948Z,170
2017-08-28T05:23:07.344Z,175
2017-08-28T05:24:07.656Z,180
2017-08-28T05:25:07.630Z,185
2017-08-28T05:26:07.293Z,190
2017-08-28T05:27:07.290Z,195
2017-08-28T05:28:07.596Z,195
2017-08-28T05:29:07.586Z,200
2017-08-28T05:30:07.580Z,205
2017-08-28T05:31:07.880Z,205
2017-08-28T05:32:07.557Z,205
2017-08-28T05:33:06.918Z,210
2017-08-28T05:34:07.531Z,215
2017-08-28T05:35:07.521Z,220
2017-08-28T05:36:07.506Z,225
2017-08-28T05:37:07.518Z,230
2017-08-28T05:38:07.478Z,235
2017-08-28T05:39:07.481Z,245
2017-08-28T05:40:07.473Z,250
2017-08-28T05:41:07.446Z,255
2017-08-28T05:42:07.750Z,265
2017-08-28T05:43:07.760Z,265
2017-08-28T05:44:07.435Z,270
2017-08-28T05:45:07.743Z,270
2017-08-28T05:46:07.084Z,275
2017-08-28T05:47:07.697Z,280
2017-08-28T05:48:07.401Z,290
2017-08-28T05:49:07.064Z,290
2017-08-28T05:50:07.381Z,300
2017-08-28T05:51:06.721Z,305
2017-08-28T05:52:07.647Z,310
2017-08-28T05:53:07.643Z,315
2017-08-28T05:54:07.323Z,320
2017-08-28T05:55:07.611Z,330
2017-08-28T05:56:07.314Z,340
2017-08-28T05:57:07.647Z,345
2017-08-28T05:58:07.293Z,355
2017-08-28T05:59:07.580Z,360
2017-08-28T06:00:07.255Z,365
2017-08-28T06:01:07.557Z,370
2017-08-28T06:02:07.552Z,370
2017-08-28T06:03:07.547Z,370
2017-08-28T06:04:07.228Z,375
2017-08-28T06:05:07.215Z,385
2017-08-28T06:06:07.199Z,395
2017-08-28T06:07:07.505Z,400
2017-08-28T06:08:07.502Z,405
2017-08-28T06:09:07.484Z,405
2017-08-28T06:10:07.163Z,405
2017-08-28T06:11:07.447Z,405
2017-08-28T06:12:07.445Z,400
2017-08-28T06:13:07.123Z,400
2017-08-28T06:14:07.429Z,405
2017-08-28T06:15:07.101Z,410
2017-08-28T06:16:07.088Z,415
2017-08-28T06:17:06.786Z,415
2017-08-28T06:18:07.071Z,410
2017-08-28T06:19:07.366Z,400
2017-08-28T06:20:06.737Z,385
2017-08-28T06:21:07.049Z,380
2017-08-28T06:22:07.348Z,380
2017-08-28T06:23:07.013Z,390
2017-08-28T06:24:07.337Z,375
2017-08-28T06:25:07.322Z,370
2017-08-28T06:26:07.299Z,375
2017-08-28T06:27:06.966Z,380
2017-08-28T06:28:07.271Z,405
2017-08-28T06:29:06.954Z,430
2017-08-28T06:30:06.960Z,455
2017-08-28T06:31:07.234Z,495
2017-08-28T06:32:06.946Z,530
2017-08-28T06:33:06.934Z,560
2017-08-28T06:34:07.206Z,580
2017-08-28T06:35:07.210Z,600
2017-08-28T06:36:06.263Z,610
2017-08-28T06:37:06.883Z,635
2017-08-28T06:38:06.876Z,680
2017-08-28T06:39:06.864Z,655
2017-08-28T06:40:06.836Z,670
2017-08-28T06:41:07.155Z,655
2017-08-28T06:42:07.133Z,695
2017-08-28T06:43:07.130Z,710
2017-08-28T06:44:07.119Z,720
2017-08-28T06:45:07.100Z,740
2017-08-28T06:46:07.089Z,750
2017-08-28T06:47:07.120Z,750
2017-08-28T06:48:07.085Z,720
2017-08-28T06:49:06.748Z,785
2017-08-28T06:50:07.045Z,780
2017-08-28T06:51:06.744Z,830
2017-08-28T06:52:07.017Z,795
2017-08-28T06:53:07.041Z,765
2017-08-28T06:54:07.009Z,735
2017-08-28T06:55:06.383Z,710
2017-08-28T06:56:07.000Z,715
2017-08-28T06:57:06.992Z,735
2017-08-28T06:58:06.971Z,725
2017-08-28T06:59:06.970Z,720
2017-08-28T07:00:06.958Z,715
2017-08-28T07:01:06.614Z,720
2017-08-28T07:02:06.626Z,755
2017-08-28T07:03:06.623Z,800
2017-08-28T07:04:06.600Z,840
2017-08-28T07:05:06.902Z,850
2017-08-28T07:06:06.886Z,880
2017-08-28T07:07:06.562Z,910
2017-08-28T07:08:06.564Z,920
2017-08-28T07:09:06.557Z,930
2017-08-28T07:10:06.547Z,945
2017-08-28T07:11:06.540Z,970
2017-08-28T07:12:06.522Z,1145
2017-08-28T07:13:06.506Z,1080
2017-08-28T07:14:06.801Z,1070
2017-08-28T07:15:06.473Z,980
2017-08-28T07:16:06.165Z,890
2017-08-28T07:17:06.155Z,875
2017-08-28T07:18:06.139Z,840
2017-08-28T07:19:06.748Z,815
2017-08-28T07:20:06.770Z,825
2017-08-28T07:21:06.720Z,830
2017-08-28T07:22:06.114Z,810
2017-08-28T07:23:06.082Z,835
2017-08-28T07:24:05.783Z,895
2017-08-28T07:25:06.077Z,885
2017-08-28T07:26:06.684Z,840
2017-08-28T07:27:06.049Z,875
2017-08-28T07:28:06.361Z,1010
2017-08-28T07:29:06.349Z,985
2017-08-28T07:30:06.025Z,995
2017-08-28T07:31:06.628Z,1085
2017-08-28T07:32:06.322Z,1145
2017-08-28T07:33:06.317Z,1225
2017-08-28T07:34:06.596Z,1365
2017-08-28T07:35:06.275Z,1965
2017-08-28T07:36:06.583Z,1490
2017-08-28T07:37:06.257Z,1165
2017-08-28T07:38:06.565Z,1065
2017-08-28T07:39:06.585Z,1010
2017-08-28T07:40:06.236Z,1390
2017-08-28T07:41:06.213Z,1105
2017-08-28T07:42:05.894Z,1350
2017-08-28T07:43:06.205Z,1210
2017-08-28T07:44:06.187Z,1230
2017-08-28T07:45:05.564Z,1765
2017-08-28T07:46:06.167Z,1960
2017-08-28T07:47:06.167Z,1395
2017-08-28T07:48:06.158Z,1160
2017-08-28T07:49:06.456Z,1145
2017-08-28T07:50:06.151Z,1040
2017-08-28T07:51:06.438Z,1535
2017-08-28T07:52:06.115Z,910
2017-08-28T07:53:06.430Z,795
2017-08-28T07:54:06.397Z,655
2017-08-28T07:55:06.401Z,615
2017-08-28T07:56:06.086Z,590
2017-08-28T07:57:06.389Z,540
2017-08-28T07:58:06.055Z,525
2017-08-28T07:59:06.060Z,515
2017-08-28T08:00:06.028Z,575
2017-08-28T08:01:06.014Z,750
2017-08-28T08:02:06.023Z,985
2017-08-28T08:03:06.015Z,1045
2017-08-28T08:04:06.015Z,895
2017-08-28T08:05:05.987Z,850
2017-08-28T08:06:06.302Z,1080
2017-08-28T08:07:05.962Z,1075
2017-08-28T08:08:05.656Z,1220
2017-08-28T08:09:05.950Z,1230
2017-08-28T08:10:06.266Z,1140
2017-08-28T08:11:06.259Z,1365
2017-08-28T08:12:06.223Z,2050
2017-08-28T08:13:06.233Z,1725
2017-08-28T08:14:05.914Z,1280
2017-08-28T08:15:05.902Z,1215
2017-08-28T08:16:06.214Z,1240
2017-08-28T08:17:06.185Z,1245
2017-08-28T08:18:05.866Z,1230
2017-08-28T08:19:06.180Z,1385
2017-08-28T08:20:06.180Z,1440
2017-08-28T08:21:06.156Z,1365
2017-08-28T08:22:05.829Z,1630
2017-08-28T08:23:06.147Z,1565
2017-08-28T08:24:06.131Z,1645
2017-08-28T08:25:06.121Z,1675
2017-08-28T08:26:05.792Z,2235
2017-08-28T08:27:05.789Z,1650
2017-08-28T08:28:05.781Z,2060
2017-08-28T08:29:06.082Z,1695
2017-08-28T08:30:05.139Z,1675
2017-08-28T08:31:06.066Z,2560
2017-08-28T08:32:05.767Z,1625
2017-08-28T08:33:06.040Z,1650
2017-08-28T08:34:06.034Z,1620
2017-08-28T08:35:06.037Z,1490
2017-08-28T08:36:06.014Z,1950
2017-08-28T08:37:05.705Z,1660
2017-08-28T08:38:05.702Z,1415
2017-08-28T08:39:05.386Z,1400
2017-08-28T08:40:05.366Z,1595
2017-08-28T08:41:05.993Z,1335
2017-08-28T08:42:05.976Z,1370
2017-08-28T08:43:05.661Z,1465
2017-08-28T08:44:05.970Z,1595
2017-08-28T08:45:05.954Z,1435
2017-08-28T08:46:05.937Z,1240
2017-08-28T08:47:05.942Z,1150
2017-08-28T08:48:05.617Z,1145
2017-08-28T08:49:05.907Z,1155
2017-08-28T08:50:05.908Z,1215
2017-08-28T08:51:05.878Z,1250
2017-08-28T08:52:05.893Z,1385
2017-08-28T08:53:05.882Z,1535
2017-08-28T08:54:05.581Z,1535
2017-08-28T08:55:05.865Z,1545
2017-08-28T08:56:05.865Z,1585
2017-08-28T08:57:05.528Z,1630
2017-08-28T08:58:05.836Z,1505
2017-08-28T08:59:05.834Z,1380
2017-08-28T09:00:05.504Z,1285
2017-08-28T09:01:05.808Z,1320
2017-08-28T09:02:05.807Z,1375
2017-08-28T09:03:05.802Z,1500
2017-08-28T09:04:05.793Z,1925
2017-08-28T09:05:05.791Z,1560
2017-08-28T09:06:05.456Z,1625
2017-08-28T09:07:05.771Z,1565
2017-08-28T09:08:05.747Z,3430
2017-08-28T09:09:05.432Z,3200
2017-08-28T09:10:05.428Z,3355
2017-08-28T09:11:05.419Z,2850
2017-08-28T09:12:05.722Z,1880
2017-08-28T09:13:05.719Z,3745
2017-08-28T09:14:05.698Z,1720
2017-08-28T09:15:05.692Z,1610
2017-08-28T09:16:05.680Z,3480
2017-08-28T09:17:05.690Z,1905
2017-08-28T09:18:05.678Z,2125
2017-08-28T09:19:05.663Z,1660
2017-08-28T09:20:05.651Z,1590
2017-08-28T09:21:05.663Z,3655
2017-08-28T09:22:05.330Z,3575
2017-08-28T09:23:05.634Z,1620
2017-08-28T09:24:05.622Z,2800
2017-08-28T09:25:05.632Z,1890
2017-08-28T09:26:05.297Z,2400
2017-08-28T09:27:05.331Z,3280
2017-08-28T09:28:05.300Z,1425
2017-08-28T09:29:05.605Z,1310
2017-08-28T09:30:04.954Z,1990
2017-08-28T09:31:05.274Z,2155
2017-08-28T09:32:05.259Z,3235
2017-08-28T09:33:05.258Z,1970
2017-08-28T09:34:05.243Z,3380
2017-08-28T09:35:04.929Z,3530
2017-08-28T09:36:05.236Z,3140
2017-08-28T09:37:05.225Z,3850
2017-08-28T09:38:05.217Z,3755
2017-08-28T09:39:05.503Z,3475
2017-08-28T09:40:05.209Z,3000
2017-08-28T09:41:05.516Z,3425
2017-08-28T09:42:05.203Z,3120
2017-08-28T09:43:05.512Z,3600
2017-08-28T09:44:05.503Z,1525
2017-08-28T09:45:05.475Z,1600
2017-08-28T09:46:04.871Z,3185
2017-08-28T09:47:05.463Z,2170
2017-08-28T09:48:05.152Z,3765
2017-08-28T09:49:05.465Z,4055
2017-08-28T09:50:04.813Z,4390
2017-08-28T09:51:04.510Z,2680
2017-08-28T09:52:04.818Z,4290
2017-08-28T09:53:05.105Z,2260
2017-08-28T09:54:05.102Z,4960
2017-08-28T09:55:05.103Z,2090
2017-08-28T09:56:05.398Z,2260
2017-08-28T09:57:05.085Z,1935
2017-08-28T09:58:05.404Z,1935
2017-08-28T09:59:05.085Z,1785
2017-08-28T10:00:05.069Z,1765
2017-08-28T10:01:05.375Z,1775
2017-08-28T10:02:05.367Z,2740
2017-08-28T10:03:05.360Z,1180
2017-08-28T10:04:05.034Z,1075
2017-08-28T10:05:05.349Z,1180
2017-08-28T10:06:05.014Z,1455
2017-08-28T10:07:05.016Z,3550
2017-08-28T10:08:05.010Z,2915
2017-08-28T10:09:05.309Z,2470
2017-08-28T10:10:04.684Z,3710
2017-08-28T10:11:04.683Z,2075
2017-08-28T10:12:04.976Z,1585
2017-08-28T10:13:04.980Z,1405
2017-08-28T10:14:04.970Z,1155
2017-08-28T10:15:04.968Z,1075
2017-08-28T10:16:05.258Z,935
2017-08-28T10:17:05.258Z,820
2017-08-28T10:18:05.255Z,805
2017-08-28T10:19:05.235Z,850
2017-08-28T10:20:05.233Z,970
2017-08-28T10:21:05.218Z,975
2017-08-28T10:22:05.234Z,1020
2017-08-28T10:23:05.207Z,1355
2017-08-28T10:24:05.210Z,3675
2017-08-28T10:25:04.878Z,1985
2017-08-28T10:26:05.185Z,2570
2017-08-28T10:27:05.167Z,4965
2017-08-28T10:28:05.168Z,2880
2017-08-28T10:29:04.873Z,2395
2017-08-28T10:30:05.147Z,1205
2017-08-28T10:31:05.161Z,940
2017-08-28T10:32:05.140Z,905
2017-08-28T10:33:04.826Z,960
2017-08-28T10:34:05.131Z,1145
2017-08-28T10:35:04.814Z,1750
2017-08-28T10:36:05.123Z,1580
2017-08-28T10:37:05.089Z,1680
2017-08-28T10:38:05.084Z,1620
2017-08-28T10:39:05.083Z,1405
2017-08-28T10:40:05.076Z,1095
2017-08-28T10:41:05.092Z,835
2017-08-28T10:42:04.443Z,695
2017-08-28T10:43:05.054Z,660
2017-08-28T10:44:05.052Z,635
2017-08-28T10:45:04.724Z,530
2017-08-28T10:46:04.718Z,430
2017-08-28T10:47:05.021Z,395
2017-08-28T10:48:05.019Z,365
2017-08-28T10:49:04.701Z,335
2017-08-28T10:50:04.687Z,300
2017-08-28T10:51:04.688Z,360
2017-08-28T10:52:04.967Z,510
2017-08-28T10:53:04.667Z,645
2017-08-28T10:54:04.961Z,745
2017-08-28T10:55:04.654Z,775
2017-08-28T10:56:04.957Z,720
2017-08-28T10:57:04.634Z,640
2017-08-28T10:58:04.628Z,540
2017-08-28T10:59:04.614Z,490
2017-08-28T11:00:04.300Z,460
2017-08-28T11:01:04.903Z,815
2017-08-28T11:02:04.587Z,1745
2017-08-28T11:03:04.572Z,2380
2017-08-28T11:04:04.589Z,1615
2017-08-28T11:05:04.565Z,1030
2017-08-28T11:06:04.853Z,930
2017-08-28T11:07:04.245Z,730
2017-08-28T11:08:04.220Z,805
2017-08-28T11:09:04.853Z,1095
2017-08-28T11:10:04.525Z,2605
2017-08-28T11:11:04.533Z,1240
2017-08-28T11:12:04.823Z,2370
2017-08-28T11:13:04.502Z,2415
2017-08-28T11:14:04.500Z,3730
2017-08-28T11:15:04.820Z,3525
2017-08-28T11:16:04.173Z,2000
2017-08-28T11:17:04.467Z,1230
2017-08-28T11:18:04.451Z,2965
2017-08-28T11:19:04.453Z,4335
2017-08-28T11:20:04.458Z,3900
2017-08-28T11:21:04.748Z,2665
2017-08-28T11:22:04.438Z,3150
2017-08-28T11:23:04.741Z,1645
2017-08-28T11:24:04.724Z,1205
2017-08-28T11:25:04.104Z,1070
2017-08-28T11:26:04.088Z,1325
2017-08-28T11:27:04.710Z,2085
2017-08-28T11:28:04.691Z,2915
2017-08-28T11:29:04.394Z,3480
2017-08-28T11:30:04.376Z,4480
2017-08-28T11:31:04.368Z,3520
2017-08-28T11:32:04.656Z,3540
2017-08-28T11:33:04.359Z,3730
2017-08-28T11:34:04.067Z,1265
2017-08-28T11:35:04.332Z,900
2017-08-28T11:36:04.333Z,655
2017-08-28T11:37:04.322Z,385
2017-08-28T11:38:04.338Z,380
2017-08-28T11:39:04.310Z,410
2017-08-28T11:40:04.295Z,455
2017-08-28T11:41:04.297Z,635
2017-08-28T11:42:04.607Z,1325
2017-08-28T11:43:04.290Z,1925
2017-08-28T11:44:04.296Z,1415
2017-08-28T11:45:04.297Z,2015
2017-08-28T11:46:04.267Z,2550
2017-08-28T11:47:03.971Z,2345
2017-08-28T11:48:04.559Z,3040
2017-08-28T11:49:04.548Z,4205
2017-08-28T11:50:04.259Z,4660
2017-08-28T11:51:04.565Z,3690
2017-08-28T11:52:04.534Z,1900
2017-08-28T11:53:04.525Z,1980
2017-08-28T11:54:04.528Z,3125
2017-08-28T11:55:04.520Z,4145
2017-08-28T11:56:04.201Z,3695
2017-08-28T11:57:04.497Z,4750
2017-08-28T11:58:04.499Z,4670
2017-08-28T11:59:04.497Z,4550
2017-08-28T12:00:04.491Z,4550
2017-08-28T12:01:04.493Z,1555
2017-08-28T12:02:04.469Z,4095
2017-08-28T12:03:04.476Z,4955
2017-08-28T12:04:04.171Z,3670
2017-08-28T12:05:03.833Z,1015
2017-08-28T12:06:04.468Z,585
2017-08-28T12:07:04.442Z,535
2017-08-28T12:08:04.454Z,500
2017-08-28T12:09:04.433Z,485
2017-08-28T12:10:04.429Z,520
2017-08-28T12:11:04.119Z,420
2017-08-28T12:12:04.425Z,360
2017-08-28T12:13:04.426Z,330
2017-08-28T12:14:04.415Z,300
2017-08-28T12:15:04.093Z,250
2017-08-28T12:16:04.388Z,335
2017-08-28T12:17:04.382Z,430
2017-08-28T12:18:04.393Z,640
2017-08-28T12:19:04.378Z,560
2017-08-28T12:20:04.073Z,490
2017-08-28T12:21:04.087Z,520
2017-08-28T12:22:04.354Z,795
2017-08-28T12:23:04.037Z,1315
2017-08-28T12:24:04.340Z,815
2017-08-28T12:25:04.332Z,840
2017-08-28T12:26:04.303Z,1130
2017-08-28T12:27:03.994Z,945
2017-08-28T12:28:04.297Z,790
2017-08-28T12:29:04.308Z,880
2017-08-28T12:30:03.981Z,825
2017-08-28T12:31:03.973Z,880
2017-08-28T12:32:04.287Z,950
2017-08-28T12:33:04.290Z,1080
2017-08-28T12:34:04.258Z,1185
2017-08-28T12:35:04.240Z,1135
2017-08-28T12:36:03.936Z,1485
2017-08-28T12:37:03.932Z,2035
2017-08-28T12:38:03.917Z,2685
2017-08-28T12:39:04.206Z,1040
2017-08-28T12:40:04.225Z,760
2017-08-28T12:41:04.222Z,760
2017-08-28T12:42:04.203Z,745
2017-08-28T12:43:04.196Z,760
2017-08-28T12:44:04.187Z,865
2017-08-28T12:45:04.166Z,720
2017-08-28T12:46:03.868Z,610
2017-08-28T12:47:03.851Z,630
2017-08-28T12:48:04.162Z,550
2017-08-28T12:49:04.164Z,850
2017-08-28T12:50:03.836Z,1045
2017-08-28T12:51:04.137Z,2005
2017-08-28T12:52:04.123Z,2860
2017-08-28T12:53:04.121Z,2250
2017-08-28T12:54:03.807Z,2840
2017-08-28T12:55:03.785Z,2315
2017-08-28T12:56:04.099Z,2675
2017-08-28T12:57:03.794Z,2485
2017-08-28T12:58:04.095Z,2660
2017-08-28T12:59:03.461Z,2330
2017-08-28T13:00:04.085Z,3045
2017-08-28T13:01:03.749Z,3340
2017-08-28T13:02:04.061Z,3460
2017-08-28T13:03:03.760Z,2710
2017-08-28T13:04:03.734Z,3010
2017-08-28T13:05:04.047Z,2840
2017-08-28T13:06:04.034Z,2690
2017-08-28T13:07:03.769Z,3230
2017-08-28T13:08:04.022Z,3010
2017-08-28T13:09:03.690Z,2630
2017-08-28T13:10:04.016Z,2235
2017-08-28T13:11:04.005Z,2580
2017-08-28T13:12:04.000Z,1865
2017-08-28T13:13:03.987Z,1620
2017-08-28T13:14:03.982Z,2010
2017-08-28T13:15:03.663Z,1420
2017-08-28T13:16:03.969Z,805
2017-08-28T13:17:03.958Z,780
2017-08-28T13:18:03.663Z,890
2017-08-28T13:19:03.960Z,950
2017-08-28T13:20:03.944Z,1030
2017-08-28T13:21:03.951Z,1340
2017-08-28T13:22:03.946Z,1825
2017-08-28T13:23:03.951Z,1160
2017-08-28T13:24:03.617Z,665
2017-08-28T13:25:03.928Z,675
2017-08-28T13:26:03.619Z,780
2017-08-28T13:27:03.918Z,945
2017-08-28T13:28:03.277Z,955
2017-08-28T13:29:03.903Z,610
2017-08-28T13:30:03.594Z,515
2017-08-28T13:31:04.103Z,610
2017-08-28T13:32:04.106Z,550
2017-08-28T13:33:17.467Z,440
2017-08-28T13:34:03.863Z,350
2017-08-28T13:35:03.861Z,405
2017-08-28T13:36:03.553Z,465
2017-08-28T13:37:03.540Z,385
2017-08-28T13:38:03.559Z,265
2017-08-28T13:39:03.520Z,180
2017-08-28T13:40:03.840Z,265
2017-08-28T13:41:03.831Z,250
2017-08-28T13:42:03.847Z,315
2017-08-28T13:43:03.799Z,525
2017-08-28T13:44:03.175Z,600
2017-08-28T13:45:03.808Z,540
2017-08-28T13:46:03.474Z,455
2017-08-28T13:47:03.151Z,405
2017-08-28T13:48:03.759Z,375
2017-08-28T13:49:03.766Z,325
2017-08-28T13:50:03.745Z,355
2017-08-28T13:51:03.755Z,440
2017-08-28T13:52:03.416Z,580
2017-08-28T13:53:03.110Z,900
2017-08-28T13:54:02.783Z,745
2017-08-28T13:55:03.707Z,820
2017-08-28T13:56:03.404Z,695